Terminal Aerodrome Forecast
Issued by NWS North Platte, NE

Home | Current Version | Previous Version | Text Only | Print | Product List | Glossary On
Versions: 1 2 3 4 5 6 7 8 9 10 11 12 13
000
FTUS43 KLBF 281100
TAFVTN
TAF
KVTN 281129Z 2812/2912 24010KT P6SM SCT250
     FM281600 30012G20KT P6SM SCT200
     FM281900 32022G29KT P6SM SCT100 BKN250
     FM290300 34017G26KT P6SM OVC050
     FM290700 33018G26KT P6SM OVC025=

USA.gov is the U.S. government's official web portal to all federal, state and local government web resources and services.